createdAt,value
2017-06-22T00:05:53.930Z,0
2017-06-22T00:16:02.633Z,0
2017-06-22T00:26:11.447Z,0
2017-06-22T00:36:20.273Z,0
2017-06-22T00:46:29.115Z,0
2017-06-22T00:56:37.940Z,0
2017-06-22T01:06:46.922Z,0
2017-06-22T01:16:55.818Z,0
2017-06-22T01:27:04.786Z,0
2017-06-22T01:37:13.816Z,0
2017-06-22T01:47:22.813Z,0
2017-06-22T01:57:31.895Z,0
2017-06-22T02:07:41.001Z,0
2017-06-22T02:17:50.035Z,0
2017-06-22T02:27:59.133Z,0
2017-06-22T02:38:08.212Z,0
2017-06-22T02:48:17.237Z,0
2017-06-22T02:58:26.310Z,5
2017-06-22T03:08:35.379Z,10
2017-06-22T03:18:44.514Z,20
2017-06-22T03:28:53.644Z,40
2017-06-22T03:39:02.693Z,60
2017-06-22T03:49:11.654Z,90
2017-06-22T03:59:20.571Z,120
2017-06-22T04:09:29.436Z,130
2017-06-22T04:19:38.281Z,140
2017-06-22T04:29:47.136Z,160
2017-06-22T04:39:55.793Z,220
2017-06-22T04:50:04.389Z,280
2017-06-22T05:00:12.905Z,365
2017-06-22T05:10:21.321Z,280
2017-06-22T05:20:29.704Z,410
2017-06-22T05:30:38.005Z,420
2017-06-22T05:40:46.122Z,525
2017-06-22T05:50:54.149Z,565
2017-06-22T06:01:02.073Z,675
2017-06-22T06:11:09.838Z,835
2017-06-22T06:21:17.506Z,915
2017-06-22T06:31:25.072Z,1085
2017-06-22T06:41:32.510Z,1170
2017-06-22T06:51:39.805Z,1235
2017-06-22T07:01:47.016Z,1375
2017-06-22T07:11:54.236Z,1555
2017-06-22T07:22:01.243Z,1610
2017-06-22T07:32:08.217Z,1730
2017-06-22T07:42:15.044Z,1570
2017-06-22T07:52:21.824Z,1755
2017-06-22T08:02:28.584Z,1900
2017-06-22T08:12:35.321Z,890
2017-06-22T08:22:41.897Z,2305
2017-06-22T08:32:48.478Z,2435
2017-06-22T08:42:54.936Z,2300
2017-06-22T08:53:01.305Z,2560
2017-06-22T09:03:07.685Z,2650
2017-06-22T09:13:14.040Z,2690
2017-06-22T09:23:20.276Z,2815
2017-06-22T09:33:26.496Z,2690
2017-06-22T09:43:32.768Z,2655
2017-06-22T09:53:38.991Z,2925
2017-06-22T10:03:45.124Z,3255
2017-06-22T10:13:51.238Z,3135
2017-06-22T10:23:57.365Z,3045
2017-06-22T10:34:03.490Z,3120
2017-06-22T10:44:09.715Z,2870
2017-06-22T10:54:15.999Z,2590
2017-06-22T11:04:22.357Z,2885
2017-06-22T11:14:28.517Z,2755
2017-06-22T11:24:34.798Z,2425
2017-06-22T11:34:41.085Z,2825
2017-06-22T11:44:47.397Z,3160
2017-06-22T11:54:53.624Z,3010
2017-06-22T12:04:59.821Z,3090
2017-06-22T12:15:05.976Z,2895
2017-06-22T12:25:12.146Z,2760
2017-06-22T12:35:18.341Z,3075
2017-06-22T12:45:24.503Z,2610
2017-06-22T12:55:30.678Z,2825
2017-06-22T13:05:36.899Z,2250
2017-06-22T13:15:43.166Z,2660
2017-06-22T13:25:49.267Z,2775
2017-06-22T13:35:55.398Z,2595
2017-06-22T13:46:01.537Z,2380
2017-06-22T13:56:07.646Z,1680
2017-06-22T14:06:13.691Z,2150
2017-06-22T14:16:19.788Z,1505
2017-06-22T14:26:25.947Z,1400
2017-06-22T14:36:32.170Z,1765
2017-06-22T14:46:38.400Z,1990
2017-06-22T14:56:44.653Z,1415
2017-06-22T15:06:50.720Z,1095
2017-06-22T15:16:56.945Z,1050
2017-06-22T15:27:03.184Z,1470
2017-06-22T15:37:09.435Z,1035
2017-06-22T15:47:15.759Z,840
2017-06-22T15:57:22.327Z,1400
2017-06-22T16:07:28.593Z,1065
2017-06-22T16:17:35.146Z,490
2017-06-22T16:27:41.899Z,785
2017-06-22T16:37:48.539Z,655
2017-06-22T16:47:55.139Z,600
2017-06-22T16:58:01.936Z,350
2017-06-22T17:08:09.037Z,215
2017-06-22T17:18:16.389Z,435
2017-06-22T17:28:23.600Z,530
2017-06-22T17:38:30.956Z,180
2017-06-22T17:48:38.494Z,130
2017-06-22T17:58:46.049Z,240
2017-06-22T18:08:53.677Z,135
2017-06-22T18:19:01.456Z,70
2017-06-22T18:29:09.325Z,300
2017-06-22T18:39:17.179Z,190
2017-06-22T18:49:25.257Z,130
2017-06-22T18:59:33.474Z,110
2017-06-22T19:09:41.789Z,95
2017-06-22T19:19:50.025Z,90
2017-06-22T19:29:58.402Z,65
2017-06-22T19:40:06.876Z,30
2017-06-22T19:50:15.457Z,15
2017-06-22T20:00:24.161Z,5
2017-06-22T20:10:32.969Z,0
2017-06-22T20:20:41.865Z,0
2017-06-22T20:30:50.779Z,0
2017-06-22T20:40:59.695Z,0
2017-06-22T20:51:08.631Z,0
2017-06-22T21:01:17.612Z,0
2017-06-22T21:11:26.575Z,0
2017-06-22T21:21:35.499Z,0
2017-06-22T21:31:44.456Z,0
2017-06-22T21:41:53.429Z,0
2017-06-22T21:52:02.390Z,0
2017-06-22T22:02:11.377Z,0
2017-06-22T22:12:20.417Z,0
2017-06-22T22:22:29.439Z,0
2017-06-22T22:32:38.476Z,0
2017-06-22T22:42:47.532Z,0
2017-06-22T22:52:56.585Z,0
2017-06-22T23:03:05.592Z,0
2017-06-22T23:13:14.664Z,0
2017-06-22T23:23:23.749Z,0
2017-06-22T23:33:32.861Z,0
2017-06-22T23:43:42.019Z,0
2017-06-22T23:53:51.163Z,0
